sensor_id;sensor_type;location;lat;lon;timestamp;pressure;altitude;pressure_sealevel;temperature;humidity
21555;BME280;10938;44.794;-0.676;2022-07-29T00:00:09;101097.41;;;26.37;nan
21555;BME280;10938;44.794;-0.676;2022-07-29T00:02:35;101103.09;;;26.30;nan
21555;BME280;10938;44.794;-0.676;2022-07-29T00:05:01;101096.88;;;26.29;nan
21555;BME280;10938;44.794;-0.676;2022-07-29T00:07:26;101093.31;;;26.29;nan
21555;BME280;10938;44.794;-0.676;2022-07-29T00:09:52;101087.34;;;26.42;nan
21555;BME280;10938;44.794;-0.676;2022-07-29T00:12:22;101088.31;;;26.41;nan
21555;BME280;10938;44.794;-0.676;2022-07-29T00:14:48;101079.63;;;26.55;nan
21555;BME280;10938;44.794;-0.676;2022-07-29T00:17:13;101080.44;;;26.38;nan
21555;BME280;10938;44.794;-0.676;2022-07-29T00:19:39;101074.44;;;26.52;nan
21555;BME280;10938;44.794;-0.676;2022-07-29T00:22:04;101071.97;;;26.47;nan
21555;BME280;10938;44.794;-0.676;2022-07-29T00:24:29;101076.94;;;26.16;nan
21555;BME280;10938;44.794;-0.676;2022-07-29T00:26:55;101077.31;;;26.47;nan
21555;BME280;10938;44.794;-0.676;2022-07-29T00:29:20;101074.50;;;26.50;nan
21555;BME280;10938;44.794;-0.676;2022-07-29T00:31:46;101079.31;;;26.42;nan
21555;BME280;10938;44.794;-0.676;2022-07-29T00:34:11;101079.84;;;26.32;nan
21555;BME280;10938;44.794;-0.676;2022-07-29T00:36:55;101075.28;;;26.13;nan
21555;BME280;10938;44.794;-0.676;2022-07-29T00:39:21;101069.66;;;27.13;nan
21555;BME280;10938;44.794;-0.676;2022-07-29T00:41:46;101068.91;;;26.36;nan
21555;BME280;10938;44.794;-0.676;2022-07-29T00:44:12;101066.59;;;26.29;nan
21555;BME280;10938;44.794;-0.676;2022-07-29T00:46:37;101065.50;;;26.33;nan
21555;BME280;10938;44.794;-0.676;2022-07-29T00:49:03;101060.75;;;27.12;nan
21555;BME280;10938;44.794;-0.676;2022-07-29T00:51:28;101060.41;;;26.47;nan
21555;BME280;10938;44.794;-0.676;2022-07-29T00:53:55;101055.31;;;26.22;nan
21555;BME280;10938;44.794;-0.676;2022-07-29T00:56:22;101059.88;;;26.20;nan
21555;BME280;10938;44.794;-0.676;2022-07-29T00:58:48;101065.75;;;27.37;nan
21555;BME280;10938;44.794;-0.676;2022-07-29T01:01:14;101071.53;;;26.94;nan
21555;BME280;10938;44.794;-0.676;2022-07-29T01:03:39;101070.59;;;26.95;nan
21555;BME280;10938;44.794;-0.676;2022-07-29T01:06:05;101064.53;;;26.54;nan
21555;BME280;10938;44.794;-0.676;2022-07-29T01:08:32;101057.88;;;27.17;nan
21555;BME280;10938;44.794;-0.676;2022-07-29T01:10:59;101050.31;;;27.08;nan
21555;BME280;10938;44.794;-0.676;2022-07-29T01:13:25;101033.28;;;27.26;nan
21555;BME280;10938;44.794;-0.676;2022-07-29T01:15:56;101039.06;;;27.19;nan
21555;BME280;10938;44.794;-0.676;2022-07-29T01:18:37;101036.81;;;27.45;nan
21555;BME280;10938;44.794;-0.676;2022-07-29T01:21:57;101039.53;;;27.27;nan
21555;BME280;10938;44.794;-0.676;2022-07-29T01:37:26;101022.53;;;26.37;nan
21555;BME280;10938;44.794;-0.676;2022-07-29T01:39:56;101019.06;;;26.17;nan
21555;BME280;10938;44.794;-0.676;2022-07-29T01:42:45;101022.03;;;26.09;nan
21555;BME280;10938;44.794;-0.676;2022-07-29T01:45:23;101015.16;;;25.85;nan
21555;BME280;10938;44.794;-0.676;2022-07-29T01:47:58;101022.94;;;25.89;nan
21555;BME280;10938;44.794;-0.676;2022-07-29T01:50:37;101019.09;;;26.15;nan
21555;BME280;10938;44.794;-0.676;2022-07-29T01:53:08;101014.66;;;25.95;nan
21555;BME280;10938;44.794;-0.676;2022-07-29T01:55:37;101015.16;;;25.85;nan
21555;BME280;10938;44.794;-0.676;2022-07-29T01:58:05;101015.28;;;26.02;nan
21555;BME280;10938;44.794;-0.676;2022-07-29T02:00:32;101011.63;;;26.03;nan
21555;BME280;10938;44.794;-0.676;2022-07-29T02:03:00;101013.19;;;26.08;nan
21555;BME280;10938;44.794;-0.676;2022-07-29T02:05:28;101011.63;;;26.03;nan
21555;BME280;10938;44.794;-0.676;2022-07-29T02:07:57;101005.50;;;26.01;nan
21555;BME280;10938;44.794;-0.676;2022-07-29T02:10:26;101017.06;;;26.01;nan
21555;BME280;10938;44.794;-0.676;2022-07-29T02:12:54;101018.06;;;25.99;nan
21555;BME280;10938;44.794;-0.676;2022-07-29T02:15:23;101019.25;;;25.73;nan
21555;BME280;10938;44.794;-0.676;2022-07-29T02:17:52;101018.47;;;25.51;nan
21555;BME280;10938;44.794;-0.676;2022-07-29T02:20:20;101007.00;;;25.88;nan
21555;BME280;10938;44.794;-0.676;2022-07-29T02:22:48;101012.63;;;25.82;nan
21555;BME280;10938;44.794;-0.676;2022-07-29T02:25:16;101004.09;;;25.92;nan
21555;BME280;10938;44.794;-0.676;2022-07-29T02:27:43;101007.25;;;26.02;nan
21555;BME280;10938;44.794;-0.676;2022-07-29T02:30:09;100998.31;;;25.83;nan
21555;BME280;10938;44.794;-0.676;2022-07-29T02:32:39;100998.91;;;25.89;nan
21555;BME280;10938;44.794;-0.676;2022-07-29T02:35:08;101008.19;;;26.01;nan
21555;BME280;10938;44.794;-0.676;2022-07-29T02:37:35;101004.09;;;25.92;nan
21555;BME280;10938;44.794;-0.676;2022-07-29T02:40:01;101004.63;;;25.82;nan
21555;BME280;10938;44.794;-0.676;2022-07-29T02:42:27;101005.59;;;25.79;nan
21555;BME280;10938;44.794;-0.676;2022-07-29T02:44:53;101006.72;;;25.94;nan
21555;BME280;10938;44.794;-0.676;2022-07-29T02:47:23;101005.56;;;25.99;nan
21555;BME280;10938;44.794;-0.676;2022-07-29T02:50:17;101022.78;;;25.74;nan
21555;BME280;10938;44.794;-0.676;2022-07-29T02:53:07;101021.53;;;26.01;nan
21555;BME280;10938;44.794;-0.676;2022-07-29T02:55:59;101028.75;;;25.99;nan
21555;BME280;10938;44.794;-0.676;2022-07-29T02:58:29;101024.34;;;26.18;nan
21555;BME280;10938;44.794;-0.676;2022-07-29T03:00:59;101025.69;;;26.83;nan
21555;BME280;10938;44.794;-0.676;2022-07-29T03:03:29;101033.22;;;25.18;nan
21555;BME280;10938;44.794;-0.676;2022-07-29T03:05:56;101028.16;;;25.12;nan
21555;BME280;10938;44.794;-0.676;2022-07-29T03:08:23;101028.22;;;25.10;nan
21555;BME280;10938;44.794;-0.676;2022-07-29T03:10:51;101028.69;;;25.62;nan
21555;BME280;10938;44.794;-0.676;2022-07-29T03:13:17;101023.13;;;25.66;nan
21555;BME280;10938;44.794;-0.676;2022-07-29T03:15:44;101025.59;;;25.71;nan
21555;BME280;10938;44.794;-0.676;2022-07-29T03:18:10;101027.44;;;25.69;nan
21555;BME280;10938;44.794;-0.676;2022-07-29T03:20:37;101017.59;;;25.71;nan
21555;BME280;10938;44.794;-0.676;2022-07-29T03:23:03;101023.56;;;25.76;nan
21555;BME280;10938;44.794;-0.676;2022-07-29T03:25:29;101026.84;;;25.82;nan
21555;BME280;10938;44.794;-0.676;2022-07-29T03:27:55;101027.97;;;25.77;nan
21555;BME280;10938;44.794;-0.676;2022-07-29T03:30:21;101033.66;;;25.69;nan
21555;BME280;10938;44.794;-0.676;2022-07-29T03:32:48;101032.41;;;25.78;nan
21555;BME280;10938;44.794;-0.676;2022-07-29T03:35:13;101038.25;;;25.86;nan
21555;BME280;10938;44.794;-0.676;2022-07-29T03:37:41;101039.13;;;25.66;nan
21555;BME280;10938;44.794;-0.676;2022-07-29T03:40:08;101047.88;;;25.70;nan
21555;BME280;10938;44.794;-0.676;2022-07-29T03:42:37;101048.81;;;25.69;nan
21555;BME280;10938;44.794;-0.676;2022-07-29T03:45:06;101066.25;;;25.57;nan
21555;BME280;10938;44.794;-0.676;2022-07-29T03:47:33;101061.66;;;25.60;nan
21555;BME280;10938;44.794;-0.676;2022-07-29T03:50:05;101079.78;;;25.52;nan
21555;BME280;10938;44.794;-0.676;2022-07-29T03:52:31;101069.19;;;25.51;nan
21555;BME280;10938;44.794;-0.676;2022-07-29T03:54:57;101072.84;;;25.48;nan
21555;BME280;10938;44.794;-0.676;2022-07-29T03:57:25;101073.34;;;25.36;nan
21555;BME280;10938;44.794;-0.676;2022-07-29T03:59:53;101072.59;;;25.54;nan
21555;BME280;10938;44.794;-0.676;2022-07-29T04:02:19;101078.13;;;25.50;nan
21555;BME280;10938;44.794;-0.676;2022-07-29T04:04:45;101083.56;;;25.47;nan
21555;BME280;10938;44.794;-0.676;2022-07-29T04:07:14;101087.25;;;25.44;nan
21555;BME280;10938;44.794;-0.676;2022-07-29T04:09:40;101088.13;;;25.23;nan
21555;BME280;10938;44.794;-0.676;2022-07-29T04:12:06;101078.38;;;25.22;nan
21555;BME280;10938;44.794;-0.676;2022-07-29T04:14:32;101091.28;;;25.33;nan
21555;BME280;10938;44.794;-0.676;2022-07-29T04:16:59;101084.44;;;25.47;nan
21555;BME280;10938;44.794;-0.676;2022-07-29T04:19:24;101079.91;;;25.49;nan
21555;BME280;10938;44.794;-0.676;2022-07-29T04:21:50;101085.63;;;25.40;nan
21555;BME280;10938;44.794;-0.676;2022-07-29T04:24:16;101085.59;;;25.42;nan
21555;BME280;10938;44.794;-0.676;2022-07-29T04:26:42;101083.28;;;25.33;nan
21555;BME280;10938;44.794;-0.676;2022-07-29T04:29:07;101089.81;;;25.26;nan
21555;BME280;10938;44.794;-0.676;2022-07-29T04:31:32;101090.81;;;25.23;nan
21555;BME280;10938;44.794;-0.676;2022-07-29T04:33:58;101091.06;;;25.17;nan
21555;BME280;10938;44.794;-0.676;2022-07-29T04:36:23;101088.53;;;25.14;nan
21555;BME280;10938;44.794;-0.676;2022-07-29T04:38:48;101095.00;;;25.08;nan
21555;BME280;10938;44.794;-0.676;2022-07-29T04:41:14;101090.00;;;24.99;nan
21555;BME280;10938;44.794;-0.676;2022-07-29T04:43:39;101092.19;;;24.90;nan
21555;BME280;10938;44.794;-0.676;2022-07-29T04:46:06;101098.13;;;24.96;nan
21555;BME280;10938;44.794;-0.676;2022-07-29T04:48:31;101101.09;;;24.89;nan
21555;BME280;10938;44.794;-0.676;2022-07-29T04:50:57;101102.19;;;24.85;nan
21555;BME280;10938;44.794;-0.676;2022-07-29T04:53:23;101110.97;;;24.87;nan
21555;BME280;10938;44.794;-0.676;2022-07-29T04:55:48;101110.19;;;24.85;nan
21555;BME280;10938;44.794;-0.676;2022-07-29T04:58:14;101110.34;;;25.02;nan
21555;BME280;10938;44.794;-0.676;2022-07-29T05:00:40;101117.31;;;25.06;nan
21555;BME280;10938;44.794;-0.676;2022-07-29T05:03:05;101120.94;;;25.05;nan
21555;BME280;10938;44.794;-0.676;2022-07-29T05:05:31;101123.78;;;25.00;nan
21555;BME280;10938;44.794;-0.676;2022-07-29T05:07:56;101128.00;;;24.84;nan
21555;BME280;10938;44.794;-0.676;2022-07-29T05:10:22;101130.13;;;24.98;nan
21555;BME280;10938;44.794;-0.676;2022-07-29T05:12:48;101143.06;;;25.07;nan
21555;BME280;10938;44.794;-0.676;2022-07-29T05:15:13;101157.00;;;25.15;nan
21555;BME280;10938;44.794;-0.676;2022-07-29T05:17:39;101158.59;;;25.19;nan
21555;BME280;10938;44.794;-0.676;2022-07-29T05:20:05;101161.38;;;25.16;nan
21555;BME280;10938;44.794;-0.676;2022-07-29T05:22:31;101162.09;;;25.21;nan
21555;BME280;10938;44.794;-0.676;2022-07-29T05:24:56;101161.00;;;25.47;nan
21555;BME280;10938;44.794;-0.676;2022-07-29T05:27:21;101153.66;;;25.53;nan
21555;BME280;10938;44.794;-0.676;2022-07-29T05:29:47;101172.56;;;25.47;nan
21555;BME280;10938;44.794;-0.676;2022-07-29T05:32:13;101172.06;;;25.59;nan
21555;BME280;10938;44.794;-0.676;2022-07-29T05:34:38;101174.84;;;25.78;nan
21555;BME280;10938;44.794;-0.676;2022-07-29T05:37:04;101184.69;;;25.78;nan
21555;BME280;10938;44.794;-0.676;2022-07-29T05:39:29;101184.22;;;25.88;nan
21555;BME280;10938;44.794;-0.676;2022-07-29T05:41:55;101183.34;;;26.08;nan
21555;BME280;10938;44.794;-0.676;2022-07-29T05:44:20;101178.63;;;26.15;nan
21555;BME280;10938;44.794;-0.676;2022-07-29T05:46:45;101179.28;;;26.40;nan
21555;BME280;10938;44.794;-0.676;2022-07-29T05:49:11;101178.22;;;26.24;nan
21555;BME280;10938;44.794;-0.676;2022-07-29T05:51:37;101191.78;;;26.19;nan
21555;BME280;10938;44.794;-0.676;2022-07-29T05:54:02;101183.88;;;26.16;nan
21555;BME280;10938;44.794;-0.676;2022-07-29T05:56:28;101180.97;;;26.22;nan
21555;BME280;10938;44.794;-0.676;2022-07-29T05:58:53;101181.19;;;26.18;nan
21555;BME280;10938;44.794;-0.676;2022-07-29T06:01:19;101179.63;;;26.32;nan
21555;BME280;10938;44.794;-0.676;2022-07-29T06:03:44;101171.78;;;26.48;nan
21555;BME280;10938;44.794;-0.676;2022-07-29T06:06:10;101180.13;;;26.60;nan
21555;BME280;10938;44.794;-0.676;2022-07-29T06:08:35;101187.06;;;26.65;nan
21555;BME280;10938;44.794;-0.676;2022-07-29T06:11:02;101183.31;;;26.69;nan
21555;BME280;10938;44.794;-0.676;2022-07-29T06:13:27;101186.16;;;27.03;nan
21555;BME280;10938;44.794;-0.676;2022-07-29T06:15:52;101189.25;;;27.12;nan
21555;BME280;10938;44.794;-0.676;2022-07-29T06:18:18;101184.97;;;27.46;nan
21555;BME280;10938;44.794;-0.676;2022-07-29T06:20:46;101188.66;;;27.43;nan
21555;BME280;10938;44.794;-0.676;2022-07-29T06:23:11;101195.16;;;27.02;nan
21555;BME280;10938;44.794;-0.676;2022-07-29T06:25:37;101181.63;;;26.66;nan
21555;BME280;10938;44.794;-0.676;2022-07-29T06:28:03;101185.59;;;26.19;nan
21555;BME280;10938;44.794;-0.676;2022-07-29T06:30:29;101191.69;;;25.80;nan
21555;BME280;10938;44.794;-0.676;2022-07-29T06:32:54;101189.72;;;25.42;nan
21555;BME280;10938;44.794;-0.676;2022-07-29T06:35:20;101190.03;;;25.34;nan
21555;BME280;10938;44.794;-0.676;2022-07-29T06:37:45;101197.28;;;25.52;nan
21555;BME280;10938;44.794;-0.676;2022-07-29T06:40:11;101192.78;;;25.54;nan
21555;BME280;10938;44.794;-0.676;2022-07-29T06:43:12;101189.47;;;25.90;nan
21555;BME280;10938;44.794;-0.676;2022-07-29T06:45:37;101186.06;;;26.28;nan
21555;BME280;10938;44.794;-0.676;2022-07-29T06:48:06;101194.34;;;27.00;nan
21555;BME280;10938;44.794;-0.676;2022-07-29T06:50:31;101200.06;;;26.72;nan
21555;BME280;10938;44.794;-0.676;2022-07-29T06:52:56;101195.00;;;26.66;nan
21555;BME280;10938;44.794;-0.676;2022-07-29T06:55:22;101197.81;;;26.63;nan
21555;BME280;10938;44.794;-0.676;2022-07-29T06:57:47;101198.06;;;26.58;nan
21555;BME280;10938;44.794;-0.676;2022-07-29T07:00:13;101197.91;;;26.80;nan
21555;BME280;10938;44.794;-0.676;2022-07-29T07:02:39;101203.88;;;26.87;nan
21555;BME280;10938;44.794;-0.676;2022-07-29T07:05:04;101205.19;;;27.16;nan
21555;BME280;10938;44.794;-0.676;2022-07-29T07:07:30;101212.69;;;27.63;nan
21555;BME280;10938;44.794;-0.676;2022-07-29T07:09:56;101230.84;;;27.93;nan
21555;BME280;10938;44.794;-0.676;2022-07-29T07:12:21;101233.94;;;28.37;nan
21555;BME280;10938;44.794;-0.676;2022-07-29T07:14:46;101235.97;;;28.66;nan
21555;BME280;10938;44.794;-0.676;2022-07-29T07:17:13;101247.53;;;28.84;nan
21555;BME280;10938;44.794;-0.676;2022-07-29T07:19:38;101239.47;;;29.63;nan
21555;BME280;10938;44.794;-0.676;2022-07-29T07:22:04;101247.28;;;30.43;nan
21555;BME280;10938;44.794;-0.676;2022-07-29T07:24:29;101248.16;;;29.84;nan
21555;BME280;10938;44.794;-0.676;2022-07-29T07:26:55;101244.84;;;29.63;nan
21555;BME280;10938;44.794;-0.676;2022-07-29T07:29:20;101245.66;;;29.34;nan
21555;BME280;10938;44.794;-0.676;2022-07-29T07:31:45;101249.00;;;29.22;nan
21555;BME280;10938;44.794;-0.676;2022-07-29T07:34:11;101258.88;;;29.22;nan
21555;BME280;10938;44.794;-0.676;2022-07-29T07:36:36;101263.94;;;29.43;nan
21555;BME280;10938;44.794;-0.676;2022-07-29T07:39:02;101269.03;;;29.63;nan
21555;BME280;10938;44.794;-0.676;2022-07-29T07:41:28;101270.03;;;30.08;nan
21555;BME280;10938;44.794;-0.676;2022-07-29T07:43:54;101267.00;;;30.44;nan
21555;BME280;10938;44.794;-0.676;2022-07-29T07:46:19;101267.66;;;31.87;nan
21555;BME280;10938;44.794;-0.676;2022-07-29T07:48:44;101273.03;;;33.04;nan
21555;BME280;10938;44.794;-0.676;2022-07-29T07:51:10;101276.75;;;32.78;nan
21555;BME280;10938;44.794;-0.676;2022-07-29T07:53:35;101279.53;;;33.14;nan
21555;BME280;10938;44.794;-0.676;2022-07-29T07:56:01;101286.66;;;32.90;nan
21555;BME280;10938;44.794;-0.676;2022-07-29T07:58:26;101289.28;;;32.79;nan
21555;BME280;10938;44.794;-0.676;2022-07-29T08:00:52;101288.41;;;32.66;nan
21555;BME280;10938;44.794;-0.676;2022-07-29T08:03:17;101298.66;;;32.60;nan
21555;BME280;10938;44.794;-0.676;2022-07-29T08:05:43;101293.16;;;32.62;nan
21555;BME280;10938;44.794;-0.676;2022-07-29T08:08:08;101293.59;;;32.69;nan
21555;BME280;10938;44.794;-0.676;2022-07-29T08:10:35;101293.38;;;32.59;nan
21555;BME280;10938;44.794;-0.676;2022-07-29T08:13:22;101294.16;;;33.11;nan
21555;BME280;10938;44.794;-0.676;2022-07-29T08:15:48;101293.50;;;32.95;nan
21555;BME280;10938;44.794;-0.676;2022-07-29T08:18:23;101299.81;;;32.56;nan
21555;BME280;10938;44.794;-0.676;2022-07-29T08:20:49;101289.28;;;32.79;nan
21555;BME280;10938;44.794;-0.676;2022-07-29T08:23:15;101289.34;;;32.52;nan
21555;BME280;10938;44.794;-0.676;2022-07-29T08:25:40;101303.06;;;33.37;nan
21555;BME280;10938;44.794;-0.676;2022-07-29T08:28:06;101305.78;;;34.91;nan
21555;BME280;10938;44.794;-0.676;2022-07-29T08:30:32;101304.13;;;37.63;nan
21555;BME280;10938;44.794;-0.676;2022-07-29T08:32:59;101301.34;;;38.51;nan
21555;BME280;10938;44.794;-0.676;2022-07-29T08:35:24;101299.03;;;37.89;nan
21555;BME280;10938;44.794;-0.676;2022-07-29T08:37:51;101294.31;;;38.01;nan
21555;BME280;10938;44.794;-0.676;2022-07-29T08:40:17;101297.97;;;37.61;nan
21555;BME280;10938;44.794;-0.676;2022-07-29T08:42:44;101291.84;;;37.69;nan
21555;BME280;10938;44.794;-0.676;2022-07-29T08:45:10;101304.66;;;42.31;nan
21555;BME280;10938;44.794;-0.676;2022-07-29T08:47:38;101301.78;;;41.75;nan
21555;BME280;10938;44.794;-0.676;2022-07-29T08:50:08;101294.28;;;40.14;nan
21555;BME280;10938;44.794;-0.676;2022-07-29T08:52:39;101280.13;;;38.07;nan
21555;BME280;10938;44.794;-0.676;2022-07-29T08:55:06;101287.13;;;37.31;nan
21555;BME280;10938;44.794;-0.676;2022-07-29T08:57:33;101287.50;;;36.66;nan
21555;BME280;10938;44.794;-0.676;2022-07-29T09:00:02;101286.66;;;36.66;nan
21555;BME280;10938;44.794;-0.676;2022-07-29T09:02:29;101287.09;;;36.71;nan
21555;BME280;10938;44.794;-0.676;2022-07-29T09:05:01;101291.66;;;37.21;nan
21555;BME280;10938;44.794;-0.676;2022-07-29T09:07:27;101288.34;;;37.48;nan
21555;BME280;10938;44.794;-0.676;2022-07-29T09:09:53;101292.84;;;38.64;nan
21555;BME280;10938;44.794;-0.676;2022-07-29T09:12:19;101294.69;;;38.92;nan
21555;BME280;10938;44.794;-0.676;2022-07-29T09:14:45;101297.63;;;40.08;nan
21555;BME280;10938;44.794;-0.676;2022-07-29T09:17:10;101295.09;;;41.27;nan
21555;BME280;10938;44.794;-0.676;2022-07-29T09:19:37;101301.81;;;44.13;nan
21555;BME280;10938;44.794;-0.676;2022-07-29T09:22:06;101307.28;;;48.30;nan
21555;BME280;10938;44.794;-0.676;2022-07-29T09:24:45;101316.34;;;51.59;nan
21555;BME280;10938;44.794;-0.676;2022-07-29T09:27:25;101314.19;;;51.61;nan
21555;BME280;10938;44.794;-0.676;2022-07-29T09:30:07;101320.13;;;52.35;nan
21555;BME280;10938;44.794;-0.676;2022-07-29T09:32:55;101311.03;;;50.60;nan
21555;BME280;10938;44.794;-0.676;2022-07-29T09:35:22;101307.25;;;48.50;nan
21555;BME280;10938;44.794;-0.676;2022-07-29T09:37:48;101307.94;;;47.59;nan
21555;BME280;10938;44.794;-0.676;2022-07-29T09:40:16;101306.66;;;47.68;nan
21555;BME280;10938;44.794;-0.676;2022-07-29T09:42:42;101299.97;;;45.68;nan
21555;BME280;10938;44.794;-0.676;2022-07-29T09:45:08;101299.22;;;44.11;nan
21555;BME280;10938;44.794;-0.676;2022-07-29T09:47:46;101298.06;;;42.97;nan
21555;BME280;10938;44.794;-0.676;2022-07-29T09:50:14;101284.53;;;41.82;nan
21555;BME280;10938;44.794;-0.676;2022-07-29T09:52:48;101292.91;;;41.81;nan
21555;BME280;10938;44.794;-0.676;2022-07-29T09:55:15;101300.06;;;41.66;nan
21555;BME280;10938;44.794;-0.676;2022-07-29T09:57:42;101295.94;;;41.53;nan
21555;BME280;10938;44.794;-0.676;2022-07-29T10:00:10;101295.59;;;40.28;nan
21555;BME280;10938;44.794;-0.676;2022-07-29T10:02:37;101291.59;;;40.57;nan
21555;BME280;10938;44.794;-0.676;2022-07-29T10:05:05;101298.59;;;41.37;nan
21555;BME280;10938;44.794;-0.676;2022-07-29T10:07:47;101303.44;;;42.09;nan
21555;BME280;10938;44.794;-0.676;2022-07-29T10:10:30;101306.91;;;42.60;nan
21555;BME280;10938;44.794;-0.676;2022-07-29T10:12:58;101295.75;;;42.21;nan
21555;BME280;10938;44.794;-0.676;2022-07-29T10:15:26;101298.00;;;41.68;nan
21555;BME280;10938;44.794;-0.676;2022-07-29T10:17:54;101291.22;;;40.78;nan
21555;BME280;10938;44.794;-0.676;2022-07-29T10:20:23;101296.19;;;40.57;nan
21555;BME280;10938;44.794;-0.676;2022-07-29T10:22:50;101294.13;;;41.36;nan
21555;BME280;10938;44.794;-0.676;2022-07-29T10:25:17;101298.44;;;41.89;nan
21555;BME280;10938;44.794;-0.676;2022-07-29T10:27:44;101295.72;;;42.45;nan
21555;BME280;10938;44.794;-0.676;2022-07-29T10:30:11;101297.06;;;41.93;nan
21555;BME280;10938;44.794;-0.676;2022-07-29T10:33:00;101295.00;;;41.95;nan
21555;BME280;10938;44.794;-0.676;2022-07-29T10:41:04;101299.81;;;40.40;nan
21555;BME280;10938;44.794;-0.676;2022-07-29T10:44:21;101303.75;;;39.30;nan
21555;BME280;10938;44.794;-0.676;2022-07-29T10:46:48;101305.56;;;39.02;nan
21555;BME280;10938;44.794;-0.676;2022-07-29T10:57:11;101311.31;;;38.99;nan
21555;BME280;10938;44.794;-0.676;2022-07-29T10:59:37;101304.88;;;39.54;nan
21555;BME280;10938;44.794;-0.676;2022-07-29T11:07:38;101312.44;;;41.36;nan
21555;BME280;10938;44.794;-0.676;2022-07-29T11:20:40;101309.84;;;41.00;nan
21555;BME280;10938;44.794;-0.676;2022-07-29T11:23:26;101295.69;;;40.79;nan
21555;BME280;10938;44.794;-0.676;2022-07-29T11:28:48;101309.47;;;41.63;nan
21555;BME280;10938;44.794;-0.676;2022-07-29T11:31:16;101309.38;;;41.97;nan
21555;BME280;10938;44.794;-0.676;2022-07-29T11:33:41;101296.44;;;41.57;nan
21555;BME280;10938;44.794;-0.676;2022-07-29T11:38:32;101304.44;;;41.50;nan
21555;BME280;10938;44.794;-0.676;2022-07-29T11:43:49;101303.78;;;42.06;nan
21555;BME280;10938;44.794;-0.676;2022-07-29T11:49:11;101312.69;;;40.47;nan
21555;BME280;10938;44.794;-0.676;2022-07-29T11:51:37;101311.50;;;39.97;nan
21555;BME280;10938;44.794;-0.676;2022-07-29T11:54:04;101312.47;;;38.87;nan
21555;BME280;10938;44.794;-0.676;2022-07-29T11:56:31;101309.56;;;38.98;nan
21555;BME280;10938;44.794;-0.676;2022-07-29T11:59:07;101310.41;;;39.08;nan
21555;BME280;10938;44.794;-0.676;2022-07-29T12:01:35;101300.72;;;39.50;nan
21555;BME280;10938;44.794;-0.676;2022-07-29T12:04:06;101301.53;;;40.05;nan
21555;BME280;10938;44.794;-0.676;2022-07-29T12:06:33;101299.44;;;40.17;nan
21555;BME280;10938;44.794;-0.676;2022-07-29T12:08:59;101296.22;;;39.86;nan
21555;BME280;10938;44.794;-0.676;2022-07-29T12:11:25;101302.75;;;39.93;nan
21555;BME280;10938;44.794;-0.676;2022-07-29T12:13:51;101300.34;;;39.73;nan
21555;BME280;10938;44.794;-0.676;2022-07-29T12:16:16;101301.00;;;38.83;nan
21555;BME280;10938;44.794;-0.676;2022-07-29T12:18:54;101301.72;;;39.22;nan
21555;BME280;10938;44.794;-0.676;2022-07-29T12:21:20;101300.63;;;39.15;nan
21555;BME280;10938;44.794;-0.676;2022-07-29T12:23:52;101304.47;;;39.77;nan
21555;BME280;10938;44.794;-0.676;2022-07-29T12:26:19;101303.97;;;40.26;nan
21555;BME280;10938;44.794;-0.676;2022-07-29T12:28:45;101309.06;;;40.21;nan
21555;BME280;10938;44.794;-0.676;2022-07-29T12:31:14;101310.03;;;40.38;nan
21555;BME280;10938;44.794;-0.676;2022-07-29T12:33:40;101306.75;;;40.95;nan
21555;BME280;10938;44.794;-0.676;2022-07-29T12:36:06;101313.13;;;41.38;nan
21555;BME280;10938;44.794;-0.676;2022-07-29T12:38:35;101311.50;;;40.68;nan
21555;BME280;10938;44.794;-0.676;2022-07-29T12:41:01;101304.16;;;40.50;nan
21555;BME280;10938;44.794;-0.676;2022-07-29T12:43:27;101305.44;;;40.56;nan
21555;BME280;10938;44.794;-0.676;2022-07-29T12:45:56;101306.44;;;40.98;nan
21555;BME280;10938;44.794;-0.676;2022-07-29T12:48:38;101307.81;;;40.33;nan
21555;BME280;10938;44.794;-0.676;2022-07-29T12:51:05;101303.13;;;39.63;nan
21555;BME280;10938;44.794;-0.676;2022-07-29T12:53:33;101301.66;;;39.41;nan
21555;BME280;10938;44.794;-0.676;2022-07-29T12:55:59;101298.63;;;40.07;nan
21555;BME280;10938;44.794;-0.676;2022-07-29T13:03:28;101306.66;;;40.87;nan
21555;BME280;10938;44.794;-0.676;2022-07-29T13:05:54;101308.09;;;41.25;nan
21555;BME280;10938;44.794;-0.676;2022-07-29T13:08:19;101306.53;;;40.45;nan
21555;BME280;10938;44.794;-0.676;2022-07-29T13:10:45;101306.44;;;39.57;nan
21555;BME280;10938;44.794;-0.676;2022-07-29T13:13:13;101303.31;;;39.97;nan
21555;BME280;10938;44.794;-0.676;2022-07-29T13:15:41;101306.53;;;39.92;nan
21555;BME280;10938;44.794;-0.676;2022-07-29T13:18:30;101302.88;;;39.56;nan
21555;BME280;10938;44.794;-0.676;2022-07-29T13:20:56;101308.19;;;38.75;nan
21555;BME280;10938;44.794;-0.676;2022-07-29T13:23:21;101306.81;;;38.51;nan
21555;BME280;10938;44.794;-0.676;2022-07-29T13:25:47;101304.56;;;38.93;nan
21555;BME280;10938;44.794;-0.676;2022-07-29T13:28:12;101306.34;;;38.66;nan
21555;BME280;10938;44.794;-0.676;2022-07-29T13:30:39;101307.59;;;38.90;nan
21555;BME280;10938;44.794;-0.676;2022-07-29T13:33:05;101313.06;;;38.81;nan
21555;BME280;10938;44.794;-0.676;2022-07-29T13:35:30;101319.13;;;38.55;nan
21555;BME280;10938;44.794;-0.676;2022-07-29T13:37:55;101314.22;;;38.88;nan
21555;BME280;10938;44.794;-0.676;2022-07-29T13:40:21;101311.59;;;38.96;nan
21555;BME280;10938;44.794;-0.676;2022-07-29T13:42:46;101303.47;;;39.23;nan
21555;BME280;10938;44.794;-0.676;2022-07-29T13:45:12;101320.09;;;38.74;nan
21555;BME280;10938;44.794;-0.676;2022-07-29T13:47:38;101322.00;;;39.10;nan
21555;BME280;10938;44.794;-0.676;2022-07-29T13:50:05;101316.84;;;38.22;nan
21555;BME280;10938;44.794;-0.676;2022-07-29T13:52:31;101316.69;;;37.95;nan
21555;BME280;10938;44.794;-0.676;2022-07-29T13:54:57;101318.28;;;38.36;nan
21555;BME280;10938;44.794;-0.676;2022-07-29T13:57:23;101319.56;;;38.32;nan
21555;BME280;10938;44.794;-0.676;2022-07-29T13:59:48;101326.09;;;37.41;nan
21555;BME280;10938;44.794;-0.676;2022-07-29T14:02:13;101327.94;;;37.71;nan